sensor_id;sensor_type;location;lat;lon;timestamp;temperature;humidity
4245;DHT22;2136;48.502;9.194;2023-12-20T00:02:17;8.20;70.20
4245;DHT22;2136;48.502;9.194;2023-12-20T00:04:44;8.20;69.60
4245;DHT22;2136;48.502;9.194;2023-12-20T00:07:11;8.20;70.70
4245;DHT22;2136;48.502;9.194;2023-12-20T00:09:39;8.20;70.70
4245;DHT22;2136;48.502;9.194;2023-12-20T00:12:06;8.20;71.30
4245;DHT22;2136;48.502;9.194;2023-12-20T00:14:33;8.20;72.00
4245;DHT22;2136;48.502;9.194;2023-12-20T00:17:00;8.20;71.60
4245;DHT22;2136;48.502;9.194;2023-12-20T00:19:27;8.20;71.70
4245;DHT22;2136;48.502;9.194;2023-12-20T00:21:54;8.30;72.30
4245;DHT22;2136;48.502;9.194;2023-12-20T00:24:21;8.20;72.50
4245;DHT22;2136;48.502;9.194;2023-12-20T00:26:49;8.20;72.80
4245;DHT22;2136;48.502;9.194;2023-12-20T00:29:15;8.30;73.20
4245;DHT22;2136;48.502;9.194;2023-12-20T00:31:42;8.30;73.00
4245;DHT22;2136;48.502;9.194;2023-12-20T00:34:09;8.50;73.20
4245;DHT22;2136;48.502;9.194;2023-12-20T00:36:36;8.30;73.00
4245;DHT22;2136;48.502;9.194;2023-12-20T00:39:03;8.30;73.30
4245;DHT22;2136;48.502;9.194;2023-12-20T00:41:32;8.30;73.40
4245;DHT22;2136;48.502;9.194;2023-12-20T00:44:00;8.30;73.50
4245;DHT22;2136;48.502;9.194;2023-12-20T00:46:27;8.30;73.60
4245;DHT22;2136;48.502;9.194;2023-12-20T00:48:54;8.30;73.60
4245;DHT22;2136;48.502;9.194;2023-12-20T00:51:21;8.30;74.00
4245;DHT22;2136;48.502;9.194;2023-12-20T00:53:50;8.30;74.30
4245;DHT22;2136;48.502;9.194;2023-12-20T00:56:20;8.40;74.60
4245;DHT22;2136;48.502;9.194;2023-12-20T00:58:47;8.40;74.90
4245;DHT22;2136;48.502;9.194;2023-12-20T01:01:15;8.40;75.00
4245;DHT22;2136;48.502;9.194;2023-12-20T01:03:42;8.40;75.20
4245;DHT22;2136;48.502;9.194;2023-12-20T01:06:09;8.40;75.10
4245;DHT22;2136;48.502;9.194;2023-12-20T01:08:37;8.40;76.00
4245;DHT22;2136;48.502;9.194;2023-12-20T01:11:04;8.40;75.10
4245;DHT22;2136;48.502;9.194;2023-12-20T01:13:31;8.50;75.20
4245;DHT22;2136;48.502;9.194;2023-12-20T01:15:58;8.40;75.00
4245;DHT22;2136;48.502;9.194;2023-12-20T01:18:26;8.50;75.10
4245;DHT22;2136;48.502;9.194;2023-12-20T01:20:53;8.50;75.30
4245;DHT22;2136;48.502;9.194;2023-12-20T01:23:20;8.50;75.00
4245;DHT22;2136;48.502;9.194;2023-12-20T01:25:47;8.50;74.60
4245;DHT22;2136;48.502;9.194;2023-12-20T01:28:14;8.50;74.80
4245;DHT22;2136;48.502;9.194;2023-12-20T01:30:41;8.50;74.70
4245;DHT22;2136;48.502;9.194;2023-12-20T01:33:08;8.40;74.80
4245;DHT22;2136;48.502;9.194;2023-12-20T01:35:36;8.40;75.40
4245;DHT22;2136;48.502;9.194;2023-12-20T01:38:03;8.60;76.40
4245;DHT22;2136;48.502;9.194;2023-12-20T01:40:30;8.40;76.90
4245;DHT22;2136;48.502;9.194;2023-12-20T01:43:00;8.30;77.30
4245;DHT22;2136;48.502;9.194;2023-12-20T01:45:26;8.30;77.90
4245;DHT22;2136;48.502;9.194;2023-12-20T01:47:54;8.30;79.70
4245;DHT22;2136;48.502;9.194;2023-12-20T01:50:21;8.40;81.20
4245;DHT22;2136;48.502;9.194;2023-12-20T01:52:50;8.40;80.20
4245;DHT22;2136;48.502;9.194;2023-12-20T01:55:18;8.40;80.20
4245;DHT22;2136;48.502;9.194;2023-12-20T01:57:46;8.30;80.10
4245;DHT22;2136;48.502;9.194;2023-12-20T02:00:13;8.30;80.60
4245;DHT22;2136;48.502;9.194;2023-12-20T02:02:41;8.30;81.60
4245;DHT22;2136;48.502;9.194;2023-12-20T02:05:08;8.20;82.90
4245;DHT22;2136;48.502;9.194;2023-12-20T02:07:35;8.10;84.20
4245;DHT22;2136;48.502;9.194;2023-12-20T02:10:04;8.00;85.90
4245;DHT22;2136;48.502;9.194;2023-12-20T02:12:31;8.00;86.80
4245;DHT22;2136;48.502;9.194;2023-12-20T02:14:58;8.00;87.90
4245;DHT22;2136;48.502;9.194;2023-12-20T02:17:30;8.10;89.30
4245;DHT22;2136;48.502;9.194;2023-12-20T02:19:58;7.90;90.30
4245;DHT22;2136;48.502;9.194;2023-12-20T02:22:26;7.90;90.80
4245;DHT22;2136;48.502;9.194;2023-12-20T02:24:53;7.90;91.30
4245;DHT22;2136;48.502;9.194;2023-12-20T02:27:19;7.80;91.60
4245;DHT22;2136;48.502;9.194;2023-12-20T02:29:47;7.80;91.90
4245;DHT22;2136;48.502;9.194;2023-12-20T02:32:14;7.80;92.40
4245;DHT22;2136;48.502;9.194;2023-12-20T02:34:42;7.80;93.00
4245;DHT22;2136;48.502;9.194;2023-12-20T02:37:08;7.80;93.10
4245;DHT22;2136;48.502;9.194;2023-12-20T02:39:37;7.80;93.50
4245;DHT22;2136;48.502;9.194;2023-12-20T02:42:04;7.80;94.00
4245;DHT22;2136;48.502;9.194;2023-12-20T02:44:31;7.80;94.30
4245;DHT22;2136;48.502;9.194;2023-12-20T02:46:57;7.70;94.70
4245;DHT22;2136;48.502;9.194;2023-12-20T02:49:24;7.70;95.10
4245;DHT22;2136;48.502;9.194;2023-12-20T02:51:51;7.70;95.40
4245;DHT22;2136;48.502;9.194;2023-12-20T02:54:18;7.70;95.90
4245;DHT22;2136;48.502;9.194;2023-12-20T02:56:46;7.70;96.20
4245;DHT22;2136;48.502;9.194;2023-12-20T02:59:13;7.70;96.70
4245;DHT22;2136;48.502;9.194;2023-12-20T03:01:42;7.70;97.00
4245;DHT22;2136;48.502;9.194;2023-12-20T03:04:09;7.90;97.60
4245;DHT22;2136;48.502;9.194;2023-12-20T03:06:36;7.70;97.80
4245;DHT22;2136;48.502;9.194;2023-12-20T03:09:03;7.70;98.20
4245;DHT22;2136;48.502;9.194;2023-12-20T03:11:30;7.70;98.60
4245;DHT22;2136;48.502;9.194;2023-12-20T03:13:58;7.70;98.80
4245;DHT22;2136;48.502;9.194;2023-12-20T03:16:25;7.70;99.10
4245;DHT22;2136;48.502;9.194;2023-12-20T03:18:52;7.70;99.10
4245;DHT22;2136;48.502;9.194;2023-12-20T03:21:19;7.70;99.40
4245;DHT22;2136;48.502;9.194;2023-12-20T03:23:45;7.70;99.50
4245;DHT22;2136;48.502;9.194;2023-12-20T03:26:12;7.70;99.40
4245;DHT22;2136;48.502;9.194;2023-12-20T03:28:39;7.70;99.40
4245;DHT22;2136;48.502;9.194;2023-12-20T03:31:09;7.70;99.60
4245;DHT22;2136;48.502;9.194;2023-12-20T03:33:36;7.70;99.90
4245;DHT22;2136;48.502;9.194;2023-12-20T03:36:03;7.70;99.90
4245;DHT22;2136;48.502;9.194;2023-12-20T03:38:30;7.70;99.90
4245;DHT22;2136;48.502;9.194;2023-12-20T03:40:57;7.70;99.90
4245;DHT22;2136;48.502;9.194;2023-12-20T03:43:23;7.70;99.90
4245;DHT22;2136;48.502;9.194;2023-12-20T03:45:50;7.70;99.90
4245;DHT22;2136;48.502;9.194;2023-12-20T03:48:18;7.70;99.90
4245;DHT22;2136;48.502;9.194;2023-12-20T03:50:45;7.70;99.90
4245;DHT22;2136;48.502;9.194;2023-12-20T03:53:12;7.70;99.90
4245;DHT22;2136;48.502;9.194;2023-12-20T03:55:39;7.70;99.90
4245;DHT22;2136;48.502;9.194;2023-12-20T03:58:06;7.70;99.90
4245;DHT22;2136;48.502;9.194;2023-12-20T04:00:33;7.70;99.90
4245;DHT22;2136;48.502;9.194;2023-12-20T04:03:00;7.70;99.90
4245;DHT22;2136;48.502;9.194;2023-12-20T04:05:28;7.70;99.90
4245;DHT22;2136;48.502;9.194;2023-12-20T04:07:55;7.70;99.90
4245;DHT22;2136;48.502;9.194;2023-12-20T04:10:21;7.70;99.90
4245;DHT22;2136;48.502;9.194;2023-12-20T04:12:48;7.70;99.90
4245;DHT22;2136;48.502;9.194;2023-12-20T04:15:15;7.70;99.90
4245;DHT22;2136;48.502;9.194;2023-12-20T04:17:42;7.90;99.90
4245;DHT22;2136;48.502;9.194;2023-12-20T04:20:09;7.70;99.90
4245;DHT22;2136;48.502;9.194;2023-12-20T04:22:37;7.70;99.90
4245;DHT22;2136;48.502;9.194;2023-12-20T04:25:05;7.70;99.90
4245;DHT22;2136;48.502;9.194;2023-12-20T04:27:32;7.70;99.90
4245;DHT22;2136;48.502;9.194;2023-12-20T04:29:58;7.70;99.90
4245;DHT22;2136;48.502;9.194;2023-12-20T04:32:25;7.70;99.90
4245;DHT22;2136;48.502;9.194;2023-12-20T04:34:52;7.70;99.90
4245;DHT22;2136;48.502;9.194;2023-12-20T04:37:19;7.70;99.90
4245;DHT22;2136;48.502;9.194;2023-12-20T04:39:47;7.70;99.90
4245;DHT22;2136;48.502;9.194;2023-12-20T04:42:14;7.70;99.90
4245;DHT22;2136;48.502;9.194;2023-12-20T04:44:41;7.60;99.90
4245;DHT22;2136;48.502;9.194;2023-12-20T04:47:09;7.70;99.90
4245;DHT22;2136;48.502;9.194;2023-12-20T04:49:36;7.70;99.90
4245;DHT22;2136;48.502;9.194;2023-12-20T04:52:03;7.60;99.90
4245;DHT22;2136;48.502;9.194;2023-12-20T04:54:31;7.60;99.90
4245;DHT22;2136;48.502;9.194;2023-12-20T04:56:59;7.60;99.90
4245;DHT22;2136;48.502;9.194;2023-12-20T04:59:26;7.60;99.90
4245;DHT22;2136;48.502;9.194;2023-12-20T05:01:53;7.60;99.90
4245;DHT22;2136;48.502;9.194;2023-12-20T05:04:20;7.60;99.90
4245;DHT22;2136;48.502;9.194;2023-12-20T05:06:47;7.60;99.90
4245;DHT22;2136;48.502;9.194;2023-12-20T05:09:15;7.60;99.90
4245;DHT22;2136;48.502;9.194;2023-12-20T05:11:43;7.60;99.90
4245;DHT22;2136;48.502;9.194;2023-12-20T05:14:11;7.60;99.90
4245;DHT22;2136;48.502;9.194;2023-12-20T05:16:38;7.60;99.90
4245;DHT22;2136;48.502;9.194;2023-12-20T05:19:05;7.60;99.90
4245;DHT22;2136;48.502;9.194;2023-12-20T05:21:32;7.60;99.90
4245;DHT22;2136;48.502;9.194;2023-12-20T05:23:59;7.60;99.90
4245;DHT22;2136;48.502;9.194;2023-12-20T05:26:26;7.60;99.90
4245;DHT22;2136;48.502;9.194;2023-12-20T05:28:54;7.60;99.90
4245;DHT22;2136;48.502;9.194;2023-12-20T05:31:23;7.60;99.90
4245;DHT22;2136;48.502;9.194;2023-12-20T05:33:49;7.60;99.90
4245;DHT22;2136;48.502;9.194;2023-12-20T05:36:16;7.60;99.90
4245;DHT22;2136;48.502;9.194;2023-12-20T05:38:43;7.60;99.90
4245;DHT22;2136;48.502;9.194;2023-12-20T05:41:10;7.60;99.90
4245;DHT22;2136;48.502;9.194;2023-12-20T05:43:37;7.50;99.90
4245;DHT22;2136;48.502;9.194;2023-12-20T05:46:04;7.50;99.90
4245;DHT22;2136;48.502;9.194;2023-12-20T05:48:32;7.50;99.90
4245;DHT22;2136;48.502;9.194;2023-12-20T05:50:58;7.50;99.90
4245;DHT22;2136;48.502;9.194;2023-12-20T05:53:25;7.50;99.90
4245;DHT22;2136;48.502;9.194;2023-12-20T05:55:52;7.50;99.90
4245;DHT22;2136;48.502;9.194;2023-12-20T05:58:19;7.60;99.90
4245;DHT22;2136;48.502;9.194;2023-12-20T06:00:46;7.50;99.90
4245;DHT22;2136;48.502;9.194;2023-12-20T06:03:14;7.50;99.90
4245;DHT22;2136;48.502;9.194;2023-12-20T06:05:42;7.50;99.90
4245;DHT22;2136;48.502;9.194;2023-12-20T06:08:09;7.50;99.90
4245;DHT22;2136;48.502;9.194;2023-12-20T06:10:36;7.50;99.90
4245;DHT22;2136;48.502;9.194;2023-12-20T06:13:03;7.50;99.90
4245;DHT22;2136;48.502;9.194;2023-12-20T06:15:32;7.50;99.90
4245;DHT22;2136;48.502;9.194;2023-12-20T06:17:59;7.50;99.90
4245;DHT22;2136;48.502;9.194;2023-12-20T06:20:26;7.50;99.90
4245;DHT22;2136;48.502;9.194;2023-12-20T06:22:54;7.50;99.90
4245;DHT22;2136;48.502;9.194;2023-12-20T06:25:21;7.50;99.90
4245;DHT22;2136;48.502;9.194;2023-12-20T06:27:48;7.50;99.90
4245;DHT22;2136;48.502;9.194;2023-12-20T06:30:15;7.50;99.90
4245;DHT22;2136;48.502;9.194;2023-12-20T06:32:42;7.50;99.90
4245;DHT22;2136;48.502;9.194;2023-12-20T06:35:09;7.50;99.90
4245;DHT22;2136;48.502;9.194;2023-12-20T06:37:36;7.50;99.90
4245;DHT22;2136;48.502;9.194;2023-12-20T06:40:05;7.50;99.90
4245;DHT22;2136;48.502;9.194;2023-12-20T06:42:32;7.50;99.90
4245;DHT22;2136;48.502;9.194;2023-12-20T06:44:59;7.60;99.90
4245;DHT22;2136;48.502;9.194;2023-12-20T06:47:26;7.50;99.90
4245;DHT22;2136;48.502;9.194;2023-12-20T06:49:53;7.50;99.90
4245;DHT22;2136;48.502;9.194;2023-12-20T06:52:20;7.60;99.90
4245;DHT22;2136;48.502;9.194;2023-12-20T06:54:47;7.60;99.90
4245;DHT22;2136;48.502;9.194;2023-12-20T06:57:15;7.60;99.90
4245;DHT22;2136;48.502;9.194;2023-12-20T06:59:42;7.60;99.90
4245;DHT22;2136;48.502;9.194;2023-12-20T07:02:09;7.60;99.90
4245;DHT22;2136;48.502;9.194;2023-12-20T07:04:39;7.60;99.90
4245;DHT22;2136;48.502;9.194;2023-12-20T07:07:06;7.60;99.90
4245;DHT22;2136;48.502;9.194;2023-12-20T07:09:33;7.60;99.90
4245;DHT22;2136;48.502;9.194;2023-12-20T07:12:00;7.60;99.90
4245;DHT22;2136;48.502;9.194;2023-12-20T07:14:28;7.60;99.90
4245;DHT22;2136;48.502;9.194;2023-12-20T07:16:55;7.60;99.90
4245;DHT22;2136;48.502;9.194;2023-12-20T07:19:22;7.70;99.90
4245;DHT22;2136;48.502;9.194;2023-12-20T07:21:49;7.70;99.90
4245;DHT22;2136;48.502;9.194;2023-12-20T07:24:16;7.70;99.90
4245;DHT22;2136;48.502;9.194;2023-12-20T07:26:43;7.70;99.90
4245;DHT22;2136;48.502;9.194;2023-12-20T07:29:09;7.70;99.90
4245;DHT22;2136;48.502;9.194;2023-12-20T07:31:38;7.70;99.90
4245;DHT22;2136;48.502;9.194;2023-12-20T07:34:04;7.70;99.90
4245;DHT22;2136;48.502;9.194;2023-12-20T07:36:32;7.70;99.90
4245;DHT22;2136;48.502;9.194;2023-12-20T07:38:58;7.70;99.90
4245;DHT22;2136;48.502;9.194;2023-12-20T07:41:25;7.70;99.90
4245;DHT22;2136;48.502;9.194;2023-12-20T07:43:52;7.70;99.90
4245;DHT22;2136;48.502;9.194;2023-12-20T07:46:21;7.70;99.90
4245;DHT22;2136;48.502;9.194;2023-12-20T07:48:50;7.70;99.90
4245;DHT22;2136;48.502;9.194;2023-12-20T07:51:17;7.80;99.90
4245;DHT22;2136;48.502;9.194;2023-12-20T07:53:44;7.90;99.90
4245;DHT22;2136;48.502;9.194;2023-12-20T07:56:14;7.80;99.90
4245;DHT22;2136;48.502;9.194;2023-12-20T07:58:42;7.80;99.90
4245;DHT22;2136;48.502;9.194;2023-12-20T08:01:08;7.80;99.90
4245;DHT22;2136;48.502;9.194;2023-12-20T08:03:35;7.90;99.90
4245;DHT22;2136;48.502;9.194;2023-12-20T08:06:04;7.80;99.90
4245;DHT22;2136;48.502;9.194;2023-12-20T08:08:31;7.80;99.90
4245;DHT22;2136;48.502;9.194;2023-12-20T08:10:58;7.80;99.90
4245;DHT22;2136;48.502;9.194;2023-12-20T08:13:26;7.90;99.90
4245;DHT22;2136;48.502;9.194;2023-12-20T08:15:53;7.90;99.90
4245;DHT22;2136;48.502;9.194;2023-12-20T08:18:21;7.90;99.90
4245;DHT22;2136;48.502;9.194;2023-12-20T08:20:48;7.90;99.90
4245;DHT22;2136;48.502;9.194;2023-12-20T08:23:16;7.90;99.90
4245;DHT22;2136;48.502;9.194;2023-12-20T08:25:43;7.90;99.90
4245;DHT22;2136;48.502;9.194;2023-12-20T08:28:11;7.90;99.90
4245;DHT22;2136;48.502;9.194;2023-12-20T08:30:38;7.90;99.90
4245;DHT22;2136;48.502;9.194;2023-12-20T08:33:06;8.00;99.90
4245;DHT22;2136;48.502;9.194;2023-12-20T08:35:36;8.10;99.90
4245;DHT22;2136;48.502;9.194;2023-12-20T08:38:03;8.20;99.90
4245;DHT22;2136;48.502;9.194;2023-12-20T08:40:32;8.20;99.10
4245;DHT22;2136;48.502;9.194;2023-12-20T08:42:58;8.20;98.90
4245;DHT22;2136;48.502;9.194;2023-12-20T08:45:25;8.40;99.10
4245;DHT22;2136;48.502;9.194;2023-12-20T08:47:52;8.20;99.10
4245;DHT22;2136;48.502;9.194;2023-12-20T08:50:19;8.20;99.90
4245;DHT22;2136;48.502;9.194;2023-12-20T08:52:46;8.30;99.70
4245;DHT22;2136;48.502;9.194;2023-12-20T08:55:13;8.30;99.60
4245;DHT22;2136;48.502;9.194;2023-12-20T08:57:43;8.40;99.10
4245;DHT22;2136;48.502;9.194;2023-12-20T09:00:11;8.40;98.30
4245;DHT22;2136;48.502;9.194;2023-12-20T09:02:38;8.40;97.80
4245;DHT22;2136;48.502;9.194;2023-12-20T09:05:05;8.30;97.60
4245;DHT22;2136;48.502;9.194;2023-12-20T09:07:32;8.30;98.00
4245;DHT22;2136;48.502;9.194;2023-12-20T09:09:59;8.30;98.10
4245;DHT22;2136;48.502;9.194;2023-12-20T09:12:26;8.30;98.10
4245;DHT22;2136;48.502;9.194;2023-12-20T09:14:54;8.30;98.50
4245;DHT22;2136;48.502;9.194;2023-12-20T09:17:21;8.30;98.70
4245;DHT22;2136;48.502;9.194;2023-12-20T09:19:48;8.30;98.80
4245;DHT22;2136;48.502;9.194;2023-12-20T09:22:15;8.30;98.80
4245;DHT22;2136;48.502;9.194;2023-12-20T09:24:43;8.30;98.70
4245;DHT22;2136;48.502;9.194;2023-12-20T09:27:10;8.30;99.30
4245;DHT22;2136;48.502;9.194;2023-12-20T09:29:37;8.40;98.70
4245;DHT22;2136;48.502;9.194;2023-12-20T09:32:05;8.30;97.40
4245;DHT22;2136;48.502;9.194;2023-12-20T09:34:32;8.30;97.10
4245;DHT22;2136;48.502;9.194;2023-12-20T09:36:59;8.20;96.90
4245;DHT22;2136;48.502;9.194;2023-12-20T09:39:26;8.20;96.50
4245;DHT22;2136;48.502;9.194;2023-12-20T09:42:00;8.10;94.50
4245;DHT22;2136;48.502;9.194;2023-12-20T09:44:28;8.00;94.10
4245;DHT22;2136;48.502;9.194;2023-12-20T09:46:56;8.00;94.60
4245;DHT22;2136;48.502;9.194;2023-12-20T09:49:25;8.00;95.10
4245;DHT22;2136;48.502;9.194;2023-12-20T09:51:54;8.10;94.70
4245;DHT22;2136;48.502;9.194;2023-12-20T09:54:22;8.10;94.40
4245;DHT22;2136;48.502;9.194;2023-12-20T09:56:49;8.20;93.40
4245;DHT22;2136;48.502;9.194;2023-12-20T09:59:16;8.20;92.70
4245;DHT22;2136;48.502;9.194;2023-12-20T10:01:43;8.30;90.50
4245;DHT22;2136;48.502;9.194;2023-12-20T10:04:12;8.20;89.90
4245;DHT22;2136;48.502;9.194;2023-12-20T10:06:41;8.20;88.40
4245;DHT22;2136;48.502;9.194;2023-12-20T10:09:08;8.20;88.60
4245;DHT22;2136;48.502;9.194;2023-12-20T10:11:36;8.30;87.20
4245;DHT22;2136;48.502;9.194;2023-12-20T10:14:04;8.50;88.80
4245;DHT22;2136;48.502;9.194;2023-12-20T10:16:31;8.60;86.40
4245;DHT22;2136;48.502;9.194;2023-12-20T10:18:58;8.70;84.30
4245;DHT22;2136;48.502;9.194;2023-12-20T10:21:25;8.60;83.40
4245;DHT22;2136;48.502;9.194;2023-12-20T10:23:54;8.60;83.00
4245;DHT22;2136;48.502;9.194;2023-12-20T10:26:22;8.60;83.30
4245;DHT22;2136;48.502;9.194;2023-12-20T10:28:50;8.50;82.10
4245;DHT22;2136;48.502;9.194;2023-12-20T10:31:28;8.40;81.60
4245;DHT22;2136;48.502;9.194;2023-12-20T10:33:57;8.40;81.30
4245;DHT22;2136;48.502;9.194;2023-12-20T10:36:25;8.60;82.60
4245;DHT22;2136;48.502;9.194;2023-12-20T10:38:54;9.10;81.90
4245;DHT22;2136;48.502;9.194;2023-12-20T10:41:26;9.80;79.30
4245;DHT22;2136;48.502;9.194;2023-12-20T10:43:57;10.80;74.10
4245;DHT22;2136;48.502;9.194;2023-12-20T10:46:26;11.40;71.30
4245;DHT22;2136;48.502;9.194;2023-12-20T10:48:54;12.00;67.00
4245;DHT22;2136;48.502;9.194;2023-12-20T10:51:21;12.40;64.30
4245;DHT22;2136;48.502;9.194;2023-12-20T10:53:48;13.00;63.50
4245;DHT22;2136;48.502;9.194;2023-12-20T10:56:17;13.50;62.40
4245;DHT22;2136;48.502;9.194;2023-12-20T10:58:45;14.00;61.80
4245;DHT22;2136;48.502;9.194;2023-12-20T11:01:13;14.60;59.50
4245;DHT22;2136;48.502;9.194;2023-12-20T11:03:44;14.40;55.60
4245;DHT22;2136;48.502;9.194;2023-12-20T11:06:30;13.90;53.60
4245;DHT22;2136;48.502;9.194;2023-12-20T11:09:04;13.70;54.50
4245;DHT22;2136;48.502;9.194;2023-12-20T11:11:42;13.40;53.50
4245;DHT22;2136;48.502;9.194;2023-12-20T11:14:15;13.60;55.40
4245;DHT22;2136;48.502;9.194;2023-12-20T11:16:43;14.80;55.80
4245;DHT22;2136;48.502;9.194;2023-12-20T11:19:11;16.10;54.60
4245;DHT22;2136;48.502;9.194;2023-12-20T11:21:40;17.70;54.70
4245;DHT22;2136;48.502;9.194;2023-12-20T11:24:07;19.10;50.00
4245;DHT22;2136;48.502;9.194;2023-12-20T11:26:34;19.50;46.40
4245;DHT22;2136;48.502;9.194;2023-12-20T11:29:30;19.30;44.50
4245;DHT22;2136;48.502;9.194;2023-12-20T11:31:57;18.40;42.50
4245;DHT22;2136;48.502;9.194;2023-12-20T11:34:27;17.30;43.00
4245;DHT22;2136;48.502;9.194;2023-12-20T11:36:59;16.30;43.70
4245;DHT22;2136;48.502;9.194;2023-12-20T11:39:26;15.30;44.50
4245;DHT22;2136;48.502;9.194;2023-12-20T11:41:55;14.40;45.00
4245;DHT22;2136;48.502;9.194;2023-12-20T11:44:24;13.50;46.50
4245;DHT22;2136;48.502;9.194;2023-12-20T11:46:54;12.90;48.20
4245;DHT22;2136;48.502;9.194;2023-12-20T11:49:23;12.40;49.60
4245;DHT22;2136;48.502;9.194;2023-12-20T11:51:51;12.10;50.80
4245;DHT22;2136;48.502;9.194;2023-12-20T11:54:18;12.20;51.90
4245;DHT22;2136;48.502;9.194;2023-12-20T11:56:46;11.90;51.90
4245;DHT22;2136;48.502;9.194;2023-12-20T11:59:13;11.70;51.10
4245;DHT22;2136;48.502;9.194;2023-12-20T12:01:39;11.50;51.60
4245;DHT22;2136;48.502;9.194;2023-12-20T12:04:08;11.30;51.60
4245;DHT22;2136;48.502;9.194;2023-12-20T12:06:35;11.20;51.70
4245;DHT22;2136;48.502;9.194;2023-12-20T12:09:02;10.90;51.70
4245;DHT22;2136;48.502;9.194;2023-12-20T12:11:30;10.70;52.40
4245;DHT22;2136;48.502;9.194;2023-12-20T12:13:57;10.40;52.40
4245;DHT22;2136;48.502;9.194;2023-12-20T12:16:25;10.20;53.00
4245;DHT22;2136;48.502;9.194;2023-12-20T12:18:56;10.00;53.50
4245;DHT22;2136;48.502;9.194;2023-12-20T12:21:24;9.80;55.10
4245;DHT22;2136;48.502;9.194;2023-12-20T12:23:51;9.80;54.80
4245;DHT22;2136;48.502;9.194;2023-12-20T12:26:18;9.50;55.10
4245;DHT22;2136;48.502;9.194;2023-12-20T12:28:45;9.40;55.50
4245;DHT22;2136;48.502;9.194;2023-12-20T12:31:16;9.30;56.50
4245;DHT22;2136;48.502;9.194;2023-12-20T12:33:42;9.30;56.40
4245;DHT22;2136;48.502;9.194;2023-12-20T12:36:10;9.30;56.60
4245;DHT22;2136;48.502;9.194;2023-12-20T12:38:39;9.20;56.30
4245;DHT22;2136;48.502;9.194;2023-12-20T12:41:06;9.10;56.30
4245;DHT22;2136;48.502;9.194;2023-12-20T12:43:33;9.00;56.40
4245;DHT22;2136;48.502;9.194;2023-12-20T12:46:00;9.00;56.30
4245;DHT22;2136;48.502;9.194;2023-12-20T12:48:27;8.90;56.40
4245;DHT22;2136;48.502;9.194;2023-12-20T12:50:54;8.90;56.70
4245;DHT22;2136;48.502;9.194;2023-12-20T12:53:25;8.80;57.30
4245;DHT22;2136;48.502;9.194;2023-12-20T12:55:54;8.80;57.50
4245;DHT22;2136;48.502;9.194;2023-12-20T12:58:21;8.70;57.40
4245;DHT22;2136;48.502;9.194;2023-12-20T13:00:48;8.70;57.20
4245;DHT22;2136;48.502;9.194;2023-12-20T13:03:14;8.60;56.80
4245;DHT22;2136;48.502;9.194;2023-12-20T13:05:42;8.50;57.20
4245;DHT22;2136;48.502;9.194;2023-12-20T13:08:09;8.40;57.10
4245;DHT22;2136;48.502;9.194;2023-12-20T13:10:37;8.40;57.30
4245;DHT22;2136;48.502;9.194;2023-12-20T13:13:06;8.40;57.40
4245;DHT22;2136;48.502;9.194;2023-12-20T13:15:32;8.30;57.50
4245;DHT22;2136;48.502;9.194;2023-12-20T13:17:59;8.30;57.50
4245;DHT22;2136;48.502;9.194;2023-12-20T13:20:26;8.30;57.50
4245;DHT22;2136;48.502;9.194;2023-12-20T13:22:53;8.30;57.20
4245;DHT22;2136;48.502;9.194;2023-12-20T13:25:20;8.30;57.00
4245;DHT22;2136;48.502;9.194;2023-12-20T13:27:47;8.40;57.60
4245;DHT22;2136;48.502;9.194;2023-12-20T13:30:16;8.40;56.70
4245;DHT22;2136;48.502;9.194;2023-12-20T13:32:43;8.30;56.60
4245;DHT22;2136;48.502;9.194;2023-12-20T13:35:10;8.30;56.80
4245;DHT22;2136;48.502;9.194;2023-12-20T13:37:37;8.50;57.20
4245;DHT22;2136;48.502;9.194;2023-12-20T13:40:06;8.40;57.50
4245;DHT22;2136;48.502;9.194;2023-12-20T13:42:33;8.50;57.50
4245;DHT22;2136;48.502;9.194;2023-12-20T13:45:00;8.50;56.80
4245;DHT22;2136;48.502;9.194;2023-12-20T13:47:28;8.50;57.20
4245;DHT22;2136;48.502;9.194;2023-12-20T13:49:55;8.80;57.60
4245;DHT22;2136;48.502;9.194;2023-12-20T13:52:23;8.80;57.50
4245;DHT22;2136;48.502;9.194;2023-12-20T13:54:50;8.60;57.10
4245;DHT22;2136;48.502;9.194;2023-12-20T13:57:17;8.60;57.20
4245;DHT22;2136;48.502;9.194;2023-12-20T13:59:44;8.60;57.40
4245;DHT22;2136;48.502;9.194;2023-12-20T14:02:11;8.60;57.60
4245;DHT22;2136;48.502;9.194;2023-12-20T14:04:39;8.60;57.40
4245;DHT22;2136;48.502;9.194;2023-12-20T14:07:06;8.50;57.50
4245;DHT22;2136;48.502;9.194;2023-12-20T14:09:33;8.50;57.90
4245;DHT22;2136;48.502;9.194;2023-12-20T14:12:00;8.50;58.00
4245;DHT22;2136;48.502;9.194;2023-12-20T14:14:27;8.40;58.40
4245;DHT22;2136;48.502;9.194;2023-12-20T14:16:54;8.40;58.40
4245;DHT22;2136;48.502;9.194;2023-12-20T14:19:21;8.40;58.60
4245;DHT22;2136;48.502;9.194;2023-12-20T14:21:49;8.30;59.00
4245;DHT22;2136;48.502;9.194;2023-12-20T14:24:16;8.30;59.30
4245;DHT22;2136;48.502;9.194;2023-12-20T14:26:43;8.20;59.50
4245;DHT22;2136;48.502;9.194;2023-12-20T14:29:10;8.20;60.60
4245;DHT22;2136;48.502;9.194;2023-12-20T14:31:36;8.10;60.10
4245;DHT22;2136;48.502;9.194;2023-12-20T14:34:04;8.10;60.40
4245;DHT22;2136;48.502;9.194;2023-12-20T14:36:32;8.10;60.70
4245;DHT22;2136;48.502;9.194;2023-12-20T14:39:00;8.10;61.00
4245;DHT22;2136;48.502;9.194;2023-12-20T14:41:28;8.00;61.00
4245;DHT22;2136;48.502;9.194;2023-12-20T14:43:55;8.00;61.10
4245;DHT22;2136;48.502;9.194;2023-12-20T14:46:22;8.00;61.20
4245;DHT22;2136;48.502;9.194;2023-12-20T14:48:48;7.90;61.30
4245;DHT22;2136;48.502;9.194;2023-12-20T14:51:15;7.80;61.40
4245;DHT22;2136;48.502;9.194;2023-12-20T14:53:42;7.80;61.70
4245;DHT22;2136;48.502;9.194;2023-12-20T14:56:10;7.80;61.90
4245;DHT22;2136;48.502;9.194;2023-12-20T14:58:37;7.70;62.00
4245;DHT22;2136;48.502;9.194;2023-12-20T15:01:04;7.70;62.30
4245;DHT22;2136;48.502;9.194;2023-12-20T15:03:34;7.70;62.40
4245;DHT22;2136;48.502;9.194;2023-12-20T15:06:00;7.70;62.70
4245;DHT22;2136;48.502;9.194;2023-12-20T15:08:27;7.60;62.80
4245;DHT22;2136;48.502;9.194;2023-12-20T15:10:54;7.60;63.20
4245;DHT22;2136;48.502;9.194;2023-12-20T15:13:22;7.60;63.40
4245;DHT22;2136;48.502;9.194;2023-12-20T15:15:49;7.60;63.60
4245;DHT22;2136;48.502;9.194;2023-12-20T15:18:16;7.60;63.70
4245;DHT22;2136;48.502;9.194;2023-12-20T15:20:42;7.50;63.90
4245;DHT22;2136;48.502;9.194;2023-12-20T15:23:10;7.50;64.10
4245;DHT22;2136;48.502;9.194;2023-12-20T15:25:37;7.50;64.50
4245;DHT22;2136;48.502;9.194;2023-12-20T15:28:04;7.50;64.60
4245;DHT22;2136;48.502;9.194;2023-12-20T15:30:33;7.40;64.80
4245;DHT22;2136;48.502;9.194;2023-12-20T15:33:00;7.40;65.20
4245;DHT22;2136;48.502;9.194;2023-12-20T15:35:28;7.40;65.40
4245;DHT22;2136;48.502;9.194;2023-12-20T15:37:56;7.30;65.50
4245;DHT22;2136;48.502;9.194;2023-12-20T15:40:23;7.30;65.60
4245;DHT22;2136;48.502;9.194;2023-12-20T15:42:50;7.40;66.00
4245;DHT22;2136;48.502;9.194;2023-12-20T15:45:17;7.30;65.90
4245;DHT22;2136;48.502;9.194;2023-12-20T15:47:45;7.30;66.80
4245;DHT22;2136;48.502;9.194;2023-12-20T15:50:12;7.30;66.20
4245;DHT22;2136;48.502;9.194;2023-12-20T15:52:39;7.20;66.40
4245;DHT22;2136;48.502;9.194;2023-12-20T15:55:08;7.20;66.60
4245;DHT22;2136;48.502;9.194;2023-12-20T15:57:35;7.10;66.60
4245;DHT22;2136;48.502;9.194;2023-12-20T16:00:03;7.00;66.70
4245;DHT22;2136;48.502;9.194;2023-12-20T16:02:30;6.90;67.00
4245;DHT22;2136;48.502;9.194;2023-12-20T16:04:58;6.80;67.30
4245;DHT22;2136;48.502;9.194;2023-12-20T16:07:25;6.80;67.90
4245;DHT22;2136;48.502;9.194;2023-12-20T16:09:52;6.70;68.10
4245;DHT22;2136;48.502;9.194;2023-12-20T16:12:18;6.70;68.30
4245;DHT22;2136;48.502;9.194;2023-12-20T16:14:45;6.60;68.60
4245;DHT22;2136;48.502;9.194;2023-12-20T16:17:12;6.60;69.00
4245;DHT22;2136;48.502;9.194;2023-12-20T16:19:39;6.50;69.30